This is the latest recevied weather packets stored in our database for station/object 9M2GDD-1. If no packets are shown the sender has not sent any weather packets the latest 10 day(s).
| Time | Temp. | Humidity | Pressure | Rain* | Wind** | Luminosity | Snow |
|---|---|---|---|---|---|---|---|
| 1787802804 | 32.78° C | 62% | 1016.2 hPa | - | - | - | - |
| 1787801904 | 32.22° C | 62% | 1016.3 hPa | - | - | - | - |
| 1787801004 | 32.22° C | 63% | 1016.4 hPa | - | - | - | - |
| 1787800103 | 31.67° C | 63% | 1016.6 hPa | - | - | - | - |
| 1787799203 | 31.67° C | 66% | 1016.5 hPa | - | - | - | - |
| 1787798303 | 31.67° C | 67% | 1016.6 hPa | - | - | - | - |
| 1787797403 | 31.11° C | 68% | 1016.7 hPa | - | - | - | - |
| 1787796503 | 31.11° C | 69% | 1016.7 hPa | - | - | - | - |
| 1787795603 | 30.56° C | 71% | 1016.8 hPa | - | - | - | - |
| 1787794703 | 30.56° C | 73% | 1016.7 hPa | - | - | - | - |
| 1787793803 | 30° C | 73% | 1016.4 hPa | - | - | - | - |
| 1787792903 | 28.89° C | 79% | 1016.1 hPa | - | - | - | - |
| 1787792003 | 28.33° C | 81% | 1015.7 hPa | - | - | - | - |
| 1787791102 | 28.89° C | 79% | 1015.4 hPa | - | - | - | - |
| 1787790202 | 28.33° C | 81% | 1015.3 hPa | - | - | - | - |
| 1787789302 | 28.33° C | 83% | 1015.2 hPa | - | - | - | - |
| 1787788402 | 27.78° C | 85% | 1015.2 hPa | - | - | - | - |
| 1787787502 | 27.78° C | 84% | 1015.2 hPa | - | - | - | - |
| 1787786602 | 27.78° C | 85% | 1015.1 hPa | - | - | - | - |
| 1787785702 | 27.22° C | 86% | 1015 hPa | - | - | - | - |
| 1787784802 | 27.22° C | 85% | 1015 hPa | - | - | - | - |
| 1787783902 | 27.22° C | 84% | 1015 hPa | - | - | - | - |
| 1787783002 | 27.78° C | 82% | 1015.1 hPa | - | - | - | - |
| 1787782102 | 27.78° C | 80% | 1015.1 hPa | - | - | - | - |
| 1787781201 | 28.33° C | 79% | 1015.1 hPa | - | - | - | - |
* Rain since midnight (hover to see other rain measurements)
** Current wind speed in m/s (hover to see current wind gust speed)